Albert Lea, Minnesota
Current Conditions -  °F | °C
As of 6:52 PM on Saturday 20 Dec 2014 (Local Time) from KAEL Reporting Station
Haze Haze  
Wind Chill: 23°   Ceiling: 1400
Heat Index: 30°   Visibility: 4mi
Dew Point: 28°   Wind: 7mph
Humidity: 93%   Direction: 160°SSE
Pressure: 30.1"   Gusts: NA
Location:  43.65°N, 93.37°W
Report Text: KAEL 210052Z AUTO 16006KT 4SM BR OVC014 M01/M02 A3010 RMK AO2
Loading
Personal Weather Stations






























Interactive Weather Map New forecast layout! Learn more

10-Day Weather Forecast

Advertisements
Track Severe Weather on mobile